Accueil
METAR-TAF:

METAR-TAF

Aéroports :

The Dalles, Oregon, États-Unis

latitude: 45-37-07N, longitude: 121-10-02W, altitude: 75 m

Observation

Le bulletin a été fait il y a 28 minutes, à 19:53 UTC
Vent calme
Température 15°C
Humidité 51%
Pression 1016 hPa
Visibilité: 16.1 km
Ciel clair

METAR: KDLS 221953Z AUTO 00000KT 10SM CLR 15/05 A3001 RMK AO2 SLP162 T01500050

Heure: 13:21 (20:21 UTC)

Prévision

Le bulletin a été fait il y a 3 heures et 0 minutes, à 17:21 UTC
Prévision valable du 22 à 18 UTC au 23 à 18 UTC
Vent 3 kt de direction variable
Visibilité: 10 km
Quelques nuages à une hauteur de 25000 ft
A partir de 23 à 1200 UTC
Vent kt de nord
Visibilité: 9.7 km
Nuages épars à une hauteur de 25000 ft
brume
A partir de 23 à 1600 UTC
Vent kt de nord
Visibilité: 10 km
Nuages épars à une hauteur de 25000 ft

TAF: KDLS 221721Z 2218/2318 VRB03KT P6SM FEW250 FM231200 00000KT 6SM BR SCT250 FM231600 00000KT P6SM SCT250

Observations et prévisions météorologiques de plus de 4000 aéroports (messages METAR et TAF).

Les stations disponibles sont représentées par des disques jaunes et rouges sur la carte.

Passer la souris dessus pour voir le nom de la station.

Cliquer dessus pour voir les observations et prévisions météorologiques.

Pour changer de carte: cliquez sur les boutons verts avec une croix noire pour zoomer, sur le bouton vert avec un tiret pour effectuer un zoom arrière, ou sur les flèches vertes pour les cartes adjacentes.


METAR-TAF: